Time;durP1;ratioP1;P1;durP2;ratioP2;P2;SDS_P1;SDS_P2;PMS_P1;PMS_P2;Temp;Humidity;BMP_temperature;BMP_pressure;BME280_temperature;BME280_humidity;BME280_pressure;Samples;Min_cycle;Max_cycle;Signal;HPM_P1;HPM_P2
2022/12/23 00:02:07;;;;;;;30.63;9.50;;;;;;;;;;4989284;28;20049;-43
2022/12/23 00:04:32;;;;;;;28.98;9.02;;;;;;;;;;4988403;28;20368;-43
2022/12/23 00:06:58;;;;;;;21.48;8.30;;;;;;;;;;4990232;28;20045;-43
2022/12/23 00:09:23;;;;;;;25.77;9.43;;;;;;;;;;4988395;28;20037;-43
2022/12/23 00:15:04;;;;;;;18.00;8.57;;;;;;;;;;4987039;28;20038;-46
2022/12/23 00:17:20;;;;;;;18.33;8.15;;;;;;;;;;4988342;28;20104;-45
2022/12/23 00:19:46;;;;;;;17.77;7.30;;;;;;;;;;4989245;28;20467;-43
2022/12/23 00:22:11;;;;;;;17.88;7.32;;;;;;;;;;4986368;28;20034;-42
2022/12/23 00:24:36;;;;;;;16.40;6.40;;;;;;;;;;4986003;28;20030;-43
2022/12/23 00:27:02;;;;;;;10.48;6.05;;;;;;;;;;4984303;28;20050;-43
2022/12/23 00:29:27;;;;;;;11.80;6.05;;;;;;;;;;4987826;28;20029;-43
2022/12/23 00:31:53;;;;;;;19.15;6.50;;;;;;;;;;4988642;28;20046;-43
2022/12/23 00:34:18;;;;;;;21.60;7.03;;;;;;;;;;4984179;28;20391;-43
2022/12/23 00:36:43;;;;;;;15.75;6.85;;;;;;;;;;4986139;28;20026;-43
2022/12/23 00:44:38;;;;;;;17.90;5.97;;;;;;;;;;4986563;28;20045;-42
2022/12/23 00:47:04;;;;;;;15.27;4.97;;;;;;;;;;4984012;28;20514;-43
2022/12/23 00:49:41;;;;;;;8.30;3.78;;;;;;;;;;4987171;28;20027;-43
2022/12/23 00:52:09;;;;;;;6.53;3.95;;;;;;;;;;4983249;28;20506;-43
2022/12/23 00:54:34;;;;;;;6.97;3.58;;;;;;;;;;4986503;28;20045;-45
2022/12/23 00:57:00;;;;;;;8.95;3.53;;;;;;;;;;4986065;28;20499;-43
2022/12/23 00:59:26;;;;;;;5.15;3.40;;;;;;;;;;4983538;28;20396;-43
2022/12/23 01:07:21;;;;;;;7.85;3.17;;;;;;;;;;4988513;28;20046;-43
2022/12/23 01:09:46;;;;;;;7.07;3.58;;;;;;;;;;4988075;28;20026;-43
2022/12/23 01:12:12;;;;;;;15.50;3.45;;;;;;;;;;4982065;28;20092;-43
2022/12/23 01:14:38;;;;;;;6.22;3.40;;;;;;;;;;4985331;28;20104;-46
2022/12/23 01:17:05;;;;;;;18.05;4.38;;;;;;;;;;4987588;28;20046;-44
2022/12/23 01:19:31;;;;;;;10.32;3.10;;;;;;;;;;4986683;28;20380;-44
2022/12/23 01:21:56;;;;;;;4.75;3.38;;;;;;;;;;4986748;28;20045;-43
2022/12/23 01:24:22;;;;;;;8.93;3.80;;;;;;;;;;4986928;28;20026;-44
2022/12/23 01:26:47;;;;;;;15.75;4.78;;;;;;;;;;4987120;28;20042;-46
2022/12/23 01:29:13;;;;;;;16.48;5.25;;;;;;;;;;4988004;28;20026;-43
2022/12/23 01:31:38;;;;;;;11.18;3.97;;;;;;;;;;4985734;28;20499;-44
2022/12/23 01:34:04;;;;;;;11.75;4.18;;;;;;;;;;4988685;28;20026;-45
2022/12/23 01:36:29;;;;;;;11.32;3.97;;;;;;;;;;4983488;28;20034;-43
2022/12/23 01:38:56;;;;;;;11.73;3.70;;;;;;;;;;4986921;28;20034;-43
2022/12/23 01:44:49;;;;;;;10.10;4.13;;;;;;;;;;4987347;28;20529;-43
2022/12/23 01:47:43;;;;;;;8.02;3.60;;;;;;;;;;4985504;28;20038;-43
2022/12/23 01:50:18;;;;;;;5.00;3.42;;;;;;;;;;4945482;28;20043;-43
2022/12/23 01:53:07;;;;;;;14.82;3.80;;;;;;;;;;4944822;28;20115;-43
2022/12/23 01:55:37;;;;;;;5.55;3.60;;;;;;;;;;4944351;28;20519;-43
2022/12/23 01:58:24;;;;;;;12.27;3.78;;;;;;;;;;4946318;28;20047;-44
2022/12/23 02:03:44;;;;;;;9.98;4.55;;;;;;;;;;4946700;28;20087;-47
2022/12/23 02:09:17;;;;;;;5.88;4.20;;;;;;;;;;4946300;28;20567;-43
2022/12/23 02:12:06;;;;;;;11.27;6.57;;;;;;;;;;4943567;28;20042;-44
2022/12/23 02:18:05;;;;;;;11.80;6.03;;;;;;;;;;4951994;28;20046;-43
2022/12/23 02:20:52;;;;;;;13.00;4.88;;;;;;;;;;4950203;28;20051;-44
2022/12/23 02:23:37;;;;;;;8.27;4.75;;;;;;;;;;4943482;28;20528;-43
2022/12/23 02:26:40;;;;;;;8.00;4.65;;;;;;;;;;4954650;28;20526;-45
2022/12/23 02:29:08;;;;;;;9.38;4.45;;;;;;;;;;4991059;28;20066;-43
2022/12/23 02:32:01;;;;;;;10.30;4.50;;;;;;;;;;4988721;28;20167;-43
2022/12/23 02:34:42;;;;;;;10.75;4.40;;;;;;;;;;4990953;28;20023;-43
2022/12/23 02:37:45;;;;;;;5.95;3.72;;;;;;;;;;4989246;28;20050;-46
2022/12/23 02:40:22;;;;;;;8.05;4.53;;;;;;;;;;4988452;28;20049;-44
2022/12/23 02:43:22;;;;;;;9.02;4.55;;;;;;;;;;4988726;28;20041;-45
2022/12/23 02:46:10;;;;;;;14.13;5.10;;;;;;;;;;4989278;28;20030;-43
2022/12/23 02:48:47;;;;;;;11.98;5.45;;;;;;;;;;4991086;28;20042;-42
2022/12/23 02:51:14;;;;;;;11.30;5.00;;;;;;;;;;4991154;28;20484;-44
2022/12/23 02:53:48;;;;;;;11.18;4.85;;;;;;;;;;4986572;28;20054;-45
2022/12/23 02:56:16;;;;;;;12.10;4.75;;;;;;;;;;4990077;28;20046;-43
2022/12/23 02:58:55;;;;;;;7.30;4.20;;;;;;;;;;4986678;28;20069;-43
2022/12/23 03:01:23;;;;;;;9.25;3.95;;;;;;;;;;4984928;28;20364;-44
2022/12/23 03:03:50;;;;;;;6.18;3.72;;;;;;;;;;4988778;28;20069;-42
2022/12/23 03:06:22;;;;;;;18.73;4.63;;;;;;;;;;4988882;28;20042;-42
2022/12/23 03:08:51;;;;;;;7.82;5.03;;;;;;;;;;4988256;28;20049;-44
2022/12/23 03:11:17;;;;;;;10.63;4.45;;;;;;;;;;4987277;28;20030;-43
2022/12/23 03:14:04;;;;;;;8.77;5.13;;;;;;;;;;4988764;28;20133;-43
2022/12/23 03:16:50;;;;;;;13.88;5.18;;;;;;;;;;4985905;28;20441;-44
2022/12/23 03:19:44;;;;;;;7.80;4.13;;;;;;;;;;4989296;28;20398;-43
2022/12/23 03:22:36;;;;;;;7.65;4.30;;;;;;;;;;4987948;28;20034;-44
2022/12/23 03:25:02;;;;;;;;;;;;;;;;;;4989679;28;20153;-44
2022/12/23 03:27:37;;;;;;;5.38;3.45;;;;;;;;;;4987972;28;20028;-43
2022/12/23 03:30:07;;;;;;;6.55;3.70;;;;;;;;;;4986552;28;20033;-44
2022/12/23 03:32:36;;;;;;;4.82;3.28;;;;;;;;;;4986531;28;20399;-42
2022/12/23 03:35:05;;;;;;;5.90;3.50;;;;;;;;;;4991645;28;20030;-43
2022/12/23 03:37:32;;;;;;;5.93;3.42;;;;;;;;;;4986431;28;20494;-42
2022/12/23 03:40:09;;;;;;;6.35;3.50;;;;;;;;;;4988313;28;20034;-43
2022/12/23 03:42:38;;;;;;;7.43;3.70;;;;;;;;;;4986390;28;20046;-43
2022/12/23 03:45:12;;;;;;;5.88;3.20;;;;;;;;;;4989841;28;20060;-44
2022/12/23 03:47:50;;;;;;;10.73;3.20;;;;;;;;;;4985774;28;20741;-44
2022/12/23 03:50:18;;;;;;;4.95;2.83;;;;;;;;;;4985043;28;20541;-42
2022/12/23 03:53:00;;;;;;;7.18;2.78;;;;;;;;;;4988616;28;20465;-43
2022/12/23 03:55:33;;;;;;;5.88;2.38;;;;;;;;;;4989460;28;20117;-43
2022/12/23 03:58:06;;;;;;;4.13;2.47;;;;;;;;;;4989931;28;20065;-43
2022/12/23 04:00:37;;;;;;;2.63;1.85;;;;;;;;;;4989815;28;20038;-41
2022/12/23 04:03:11;;;;;;;4.78;2.20;;;;;;;;;;4988305;28;20042;-43
2022/12/23 04:05:39;;;;;;;4.78;2.83;;;;;;;;;;4987851;28;20480;-43
2022/12/23 04:08:15;;;;;;;5.55;2.00;;;;;;;;;;4989392;28;20046;-43
2022/12/23 04:10:41;;;;;;;6.88;2.55;;;;;;;;;;4991284;28;20030;-43
2022/12/23 04:13:06;;;;;;;9.45;3.50;;;;;;;;;;4986422;28;20105;-44
2022/12/23 04:15:32;;;;;;;3.88;2.65;;;;;;;;;;4989080;28;20423;-43
2022/12/23 04:17:58;;;;;;;5.57;3.50;;;;;;;;;;4989075;28;20041;-43
2022/12/23 04:20:24;;;;;;;3.83;2.80;;;;;;;;;;4988305;28;20030;-45
2022/12/23 04:22:49;;;;;;;5.78;3.10;;;;;;;;;;4988727;28;20038;-44
2022/12/23 04:25:16;;;;;;;4.18;2.90;;;;;;;;;;4989972;28;20027;-42
2022/12/23 04:27:42;;;;;;;6.03;2.90;;;;;;;;;;4984133;28;20038;-43
2022/12/23 04:30:10;;;;;;;2.92;2.63;;;;;;;;;;4990109;28;20037;-43
2022/12/23 04:32:35;;;;;;;4.30;2.60;;;;;;;;;;4983620;28;20038;-44
2022/12/23 04:35:00;;;;;;;8.68;2.50;;;;;;;;;;4988250;28;20495;-42
2022/12/23 04:37:26;;;;;;;3.40;2.60;;;;;;;;;;4988840;28;20572;-43
2022/12/23 04:39:51;;;;;;;5.38;3.00;;;;;;;;;;4989105;28;20034;-41
2022/12/23 04:42:17;;;;;;;11.43;2.83;;;;;;;;;;4987260;28;20042;-43
2022/12/23 04:44:42;;;;;;;2.30;2.10;;;;;;;;;;4987728;28;20057;-43
2022/12/23 04:47:08;;;;;;;4.05;2.10;;;;;;;;;;4986943;28;20094;-43
2022/12/23 04:49:33;;;;;;;3.05;1.98;;;;;;;;;;4985824;28;20057;-44
2022/12/23 04:51:58;;;;;;;5.18;1.90;;;;;;;;;;4988343;28;20065;-44
2022/12/23 04:54:24;;;;;;;4.00;1.80;;;;;;;;;;4986324;28;20030;-43
2022/12/23 04:56:49;;;;;;;7.15;1.85;;;;;;;;;;4984932;28;20034;-47
2022/12/23 04:59:15;;;;;;;3.90;2.25;;;;;;;;;;4988331;28;20022;-43
2022/12/23 05:01:43;;;;;;;7.38;2.08;;;;;;;;;;4983013;28;20101;-43
2022/12/23 05:04:08;;;;;;;2.22;2.03;;;;;;;;;;4987070;28;20026;-43
2022/12/23 05:06:35;;;;;;;4.78;1.92;;;;;;;;;;4986519;28;20026;-44
2022/12/23 05:09:00;;;;;;;3.35;1.75;;;;;;;;;;4987041;28;20483;-46
2022/12/23 05:11:25;;;;;;;2.47;1.60;;;;;;;;;;4985321;28;20084;-43
2022/12/23 05:13:51;;;;;;;4.47;1.80;;;;;;;;;;4984396;28;20045;-43
2022/12/23 05:16:16;;;;;;;2.33;1.67;;;;;;;;;;4987682;28;20025;-44
2022/12/23 05:18:42;;;;;;;1.98;1.77;;;;;;;;;;4986187;28;20521;-43
2022/12/23 05:21:07;;;;;;;5.28;1.70;;;;;;;;;;4987176;28;20902;-43
2022/12/23 05:23:33;;;;;;;4.25;1.65;;;;;;;;;;4986000;28;20484;-43
2022/12/23 05:25:58;;;;;;;3.50;1.55;;;;;;;;;;4989328;28;20398;-43
2022/12/23 05:28:24;;;;;;;6.78;1.73;;;;;;;;;;4984526;28;20045;-43
2022/12/23 05:30:59;;;;;;;3.95;1.60;;;;;;;;;;4984398;28;20038;-43
2022/12/23 05:33:26;;;;;;;2.85;1.60;;;;;;;;;;5015706;28;20399;-43
2022/12/23 05:35:51;;;;;;;2.97;1.58;;;;;;;;;;4990606;28;20034;-43
2022/12/23 05:38:16;;;;;;;1.95;1.60;;;;;;;;;;4986745;28;20039;-43
2022/12/23 05:40:42;;;;;;;2.53;1.75;;;;;;;;;;4986679;28;20034;-45
2022/12/23 05:43:07;;;;;;;7.13;2.20;;;;;;;;;;4985902;28;20535;-43
2022/12/23 05:45:36;;;;;;;1.70;1.60;;;;;;;;;;4986899;28;20053;-43
2022/12/23 05:48:01;;;;;;;3.22;1.70;;;;;;;;;;4986529;28;20096;-45
2022/12/23 05:50:27;;;;;;;2.45;1.80;;;;;;;;;;4987809;28;20475;-43
2022/12/23 05:52:54;;;;;;;2.25;1.65;;;;;;;;;;4990087;28;20128;-43
2022/12/23 05:55:20;;;;;;;3.65;1.55;;;;;;;;;;4989013;28;20562;-42
2022/12/23 05:57:45;;;;;;;3.28;1.67;;;;;;;;;;4992047;28;20129;-46
2022/12/23 06:00:11;;;;;;;2.15;1.48;;;;;;;;;;4990700;28;20030;-45
2022/12/23 06:02:37;;;;;;;3.10;1.80;;;;;;;;;;4989565;28;20043;-43
2022/12/23 06:05:02;;;;;;;3.30;1.50;;;;;;;;;;4991624;28;20038;-43
2022/12/23 06:07:28;;;;;;;2.70;1.60;;;;;;;;;;4990814;28;20055;-43
2022/12/23 06:09:53;;;;;;;2.90;1.67;;;;;;;;;;4988465;28;20090;-43
2022/12/23 06:12:18;;;;;;;3.00;1.75;;;;;;;;;;4990245;28;20042;-43
2022/12/23 06:14:44;;;;;;;1.67;1.58;;;;;;;;;;4982263;28;20022;-43
2022/12/23 06:17:09;;;;;;;2.92;1.98;;;;;;;;;;4989718;28;20039;-46
2022/12/23 06:19:35;;;;;;;3.00;1.88;;;;;;;;;;4988008;28;20042;-44
2022/12/23 06:22:00;;;;;;;4.50;1.90;;;;;;;;;;4992750;28;20668;-44
2022/12/23 06:24:25;;;;;;;5.38;1.70;;;;;;;;;;4989325;28;20038;-44
2022/12/23 06:26:51;;;;;;;5.55;2.00;;;;;;;;;;4990556;28;20402;-43
2022/12/23 06:29:16;;;;;;;6.80;2.00;;;;;;;;;;4990720;28;20021;-43
2022/12/23 06:31:41;;;;;;;2.42;2.10;;;;;;;;;;4990691;28;20432;-43
2022/12/23 06:34:07;;;;;;;2.40;1.92;;;;;;;;;;4991840;28;20022;-43
2022/12/23 06:36:32;;;;;;;4.00;2.40;;;;;;;;;;4989936;28;20061;-41
2022/12/23 06:38:57;;;;;;;4.28;2.25;;;;;;;;;;4990726;28;20034;-45
2022/12/23 06:41:23;;;;;;;5.03;2.13;;;;;;;;;;4988460;28;20075;-43
2022/12/23 06:43:48;;;;;;;4.15;2.78;;;;;;;;;;4990334;28;20042;-43
2022/12/23 06:46:13;;;;;;;5.57;3.67;;;;;;;;;;4989877;28;20038;-43
2022/12/23 06:48:39;;;;;;;5.32;3.00;;;;;;;;;;4992162;28;20553;-43
2022/12/23 06:51:04;;;;;;;4.00;3.60;;;;;;;;;;4988963;28;20121;-43
2022/12/23 06:53:30;;;;;;;6.75;4.13;;;;;;;;;;4991399;28;20046;-44
2022/12/23 06:56:02;;;;;;;6.00;3.95;;;;;;;;;;4989225;28;20042;-43
2022/12/23 06:58:28;;;;;;;6.22;3.83;;;;;;;;;;4990746;28;20066;-45
2022/12/23 07:00:54;;;;;;;4.20;3.58;;;;;;;;;;4987912;28;20068;-43
2022/12/23 07:03:20;;;;;;;5.18;3.55;;;;;;;;;;4988594;28;20085;-43
2022/12/23 07:05:49;;;;;;;5.55;3.75;;;;;;;;;;4986593;28;20030;-43
2022/12/23 07:08:15;;;;;;;7.07;4.47;;;;;;;;;;4989393;28;20041;-43
2022/12/23 07:10:40;;;;;;;10.40;3.97;;;;;;;;;;4989706;28;20026;-43
2022/12/23 07:13:06;;;;;;;6.72;3.58;;;;;;;;;;4989704;28;20053;-44
2022/12/23 07:15:31;;;;;;;4.40;3.53;;;;;;;;;;4989130;28;20561;-43
2022/12/23 07:17:57;;;;;;;4.65;4.13;;;;;;;;;;4986220;28;20802;-44
2022/12/23 07:20:22;;;;;;;7.03;3.40;;;;;;;;;;4987057;28;20505;-43
2022/12/23 07:22:49;;;;;;;6.00;3.15;;;;;;;;;;4990847;28;20272;-44
2022/12/23 07:25:15;;;;;;;7.07;3.53;;;;;;;;;;4989333;28;20475;-44
2022/12/23 07:27:41;;;;;;;5.80;3.97;;;;;;;;;;4987694;28;20038;-43
2022/12/23 07:30:07;;;;;;;4.50;3.85;;;;;;;;;;4989247;28;20033;-44
2022/12/23 07:32:33;;;;;;;12.00;4.50;;;;;;;;;;4988654;28;20510;-43
2022/12/23 07:34:58;;;;;;;8.27;3.85;;;;;;;;;;4986177;28;20081;-43
2022/12/23 07:37:23;;;;;;;8.55;4.75;;;;;;;;;;4990943;28;20045;-43
2022/12/23 07:39:49;;;;;;;7.68;4.78;;;;;;;;;;4988386;28;20057;-43
2022/12/23 07:42:14;;;;;;;8.90;4.60;;;;;;;;;;4988898;28;20121;-43
2022/12/23 07:44:40;;;;;;;4.95;4.40;;;;;;;;;;4989376;28;20394;-46
2022/12/23 07:47:06;;;;;;;4.85;3.88;;;;;;;;;;4988689;28;20050;-44
2022/12/23 07:49:31;;;;;;;5.68;4.57;;;;;;;;;;4987228;28;20033;-43
2022/12/23 07:51:56;;;;;;;6.47;3.88;;;;;;;;;;4988483;28;20582;-43
2022/12/23 07:54:22;;;;;;;5.38;3.63;;;;;;;;;;4988924;28;20121;-43
2022/12/23 07:56:47;;;;;;;7.15;3.92;;;;;;;;;;4988555;28;20360;-43
2022/12/23 07:59:13;;;;;;;7.63;4.47;;;;;;;;;;4988539;28;20157;-43
2022/12/23 08:01:38;;;;;;;8.35;5.03;;;;;;;;;;4985837;28;20498;-43
2022/12/23 08:04:03;;;;;;;9.10;4.80;;;;;;;;;;4988992;28;20440;-43
2022/12/23 08:06:29;;;;;;;7.55;4.43;;;;;;;;;;4985762;28;20049;-42
2022/12/23 08:08:54;;;;;;;8.30;4.05;;;;;;;;;;4988289;28;20033;-44
2022/12/23 08:11:20;;;;;;;5.72;3.95;;;;;;;;;;4987281;28;20137;-43
2022/12/23 08:13:47;;;;;;;5.18;3.78;;;;;;;;;;4981932;28;20718;-47
2022/12/23 08:16:13;;;;;;;9.05;3.88;;;;;;;;;;4988177;28;20073;-43
2022/12/23 08:18:40;;;;;;;7.45;3.78;;;;;;;;;;4981562;28;20165;-43
2022/12/23 08:21:09;;;;;;;7.38;4.00;;;;;;;;;;4973944;28;20038;-43
2022/12/23 08:23:35;;;;;;;8.88;4.50;;;;;;;;;;4979800;28;20034;-47
2022/12/23 08:26:04;;;;;;;11.05;4.40;;;;;;;;;;4985024;28;20360;-44
2022/12/23 08:28:31;;;;;;;7.63;4.43;;;;;;;;;;4984602;28;20034;-47
2022/12/23 08:31:14;;;;;;;6.40;4.90;;;;;;;;;;4984362;28;20031;-46
2022/12/23 08:33:42;;;;;;;5.93;4.35;;;;;;;;;;4986228;28;20041;-43
2022/12/23 08:36:11;;;;;;;13.63;4.80;;;;;;;;;;4985772;28;20022;-44
2022/12/23 08:38:36;;;;;;;9.77;5.88;;;;;;;;;;4984685;28;20129;-43
2022/12/23 08:41:02;;;;;;;11.60;6.55;;;;;;;;;;4979909;28;20096;-44
2022/12/23 08:43:27;;;;;;;13.63;6.20;;;;;;;;;;4978314;28;20118;-43
2022/12/23 08:45:53;;;;;;;15.55;7.65;;;;;;;;;;4983630;28;20491;-41
2022/12/23 08:48:19;;;;;;;12.45;7.05;;;;;;;;;;4985689;28;20092;-43
2022/12/23 08:50:45;;;;;;;16.70;10.98;;;;;;;;;;4983326;28;20026;-44
2022/12/23 08:53:11;;;;;;;23.42;12.88;;;;;;;;;;4985460;28;20125;-44
2022/12/23 08:55:44;;;;;;;15.18;11.88;;;;;;;;;;4980926;28;20108;-45
2022/12/23 08:58:11;;;;;;;11.38;6.72;;;;;;;;;;4984518;28;20047;-43
2022/12/23 09:00:37;;;;;;;9.40;6.90;;;;;;;;;;4984826;28;20519;-43
2022/12/23 09:03:03;;;;;;;10.50;6.55;;;;;;;;;;4986807;28;20080;-43
2022/12/23 09:05:30;;;;;;;9.25;5.35;;;;;;;;;;4982867;28;20050;-44
2022/12/23 09:07:56;;;;;;;14.30;3.70;;;;;;;;;;4983502;28;20051;-43
2022/12/23 09:10:22;;;;;;;7.57;4.32;;;;;;;;;;4985127;28;20030;-44
2022/12/23 09:12:48;;;;;;;8.88;3.47;;;;;;;;;;4987877;28;20042;-43
2022/12/23 09:15:14;;;;;;;8.00;3.60;;;;;;;;;;4990220;28;20042;-43
2022/12/23 09:17:39;;;;;;;5.95;3.10;;;;;;;;;;4984885;28;20093;-43
2022/12/23 09:20:05;;;;;;;6.03;2.60;;;;;;;;;;4980567;28;20034;-43
2022/12/23 09:22:32;;;;;;;7.35;3.10;;;;;;;;;;4981758;28;20547;-45
2022/12/23 09:24:57;;;;;;;7.30;2.60;;;;;;;;;;4986325;28;20109;-45
2022/12/23 09:27:23;;;;;;;2.63;2.33;;;;;;;;;;4987040;28;20126;-45
2022/12/23 09:29:48;;;;;;;6.90;2.90;;;;;;;;;;4987537;28;20072;-47
2022/12/23 09:32:14;;;;;;;3.60;2.92;;;;;;;;;;4988873;28;20406;-49
2022/12/23 09:34:39;;;;;;;5.68;2.80;;;;;;;;;;4987957;28;20046;-45
2022/12/23 09:37:04;;;;;;;9.15;6.38;;;;;;;;;;4986401;28;21464;-45
2022/12/23 09:39:30;;;;;;;12.80;8.25;;;;;;;;;;4987071;28;20018;-43
2022/12/23 09:42:20;;;;;;;12.85;8.35;;;;;;;;;;4985769;28;20046;-43
2022/12/23 09:44:55;;;;;;;15.57;9.23;;;;;;;;;;4984843;28;20035;-43
2022/12/23 09:47:25;;;;;;;17.08;9.20;;;;;;;;;;4985272;28;20030;-43
2022/12/23 09:49:55;;;;;;;13.40;8.63;;;;;;;;;;4984078;28;20361;-43
2022/12/23 09:52:32;;;;;;;11.27;8.18;;;;;;;;;;4986655;28;20038;-44
2022/12/23 09:54:57;;;;;;;11.75;7.03;;;;;;;;;;4987202;28;20668;-45
2022/12/23 09:57:35;;;;;;;10.75;7.95;;;;;;;;;;4984363;28;20137;-43
2022/12/23 10:00:05;;;;;;;27.77;14.35;;;;;;;;;;4989641;28;20113;-43
2022/12/23 10:03:08;;;;;;;17.55;11.45;;;;;;;;;;4987011;28;20531;-43
2022/12/23 10:05:34;;;;;;;;;;;;;;;;;;4985863;28;20046;-44
2022/12/23 10:08:23;;;;;;;6.68;5.20;;;;;;;;;;4982784;28;19972;-45
2022/12/23 10:10:54;;;;;;;9.65;5.95;;;;;;;;;;4984600;28;20045;-43
2022/12/23 10:13:30;;;;;;;9.70;6.35;;;;;;;;;;4986315;28;20415;-44
2022/12/23 10:16:02;;;;;;;14.75;9.77;;;;;;;;;;4986837;28;20027;-44
2022/12/23 10:18:58;;;;;;;15.77;8.05;;;;;;;;;;4984356;28;20041;-43
2022/12/23 10:21:50;;;;;;;11.50;7.90;;;;;;;;;;4983436;28;20177;-43
2022/12/23 10:24:23;;;;;;;8.80;6.03;;;;;;;;;;4983027;28;20043;-43
2022/12/23 10:26:54;;;;;;;13.27;6.28;;;;;;;;;;4984495;28;20042;-44
2022/12/23 10:29:22;;;;;;;16.85;7.07;;;;;;;;;;4983244;28;20368;-43
2022/12/23 10:32:06;;;;;;;12.88;7.15;;;;;;;;;;4987742;28;20038;-43
2022/12/23 10:35:05;;;;;;;11.90;6.93;;;;;;;;;;4982850;28;20495;-46
2022/12/23 10:37:36;;;;;;;14.00;6.80;;;;;;;;;;4987591;28;20398;-44
2022/12/23 10:40:04;;;;;;;11.18;7.15;;;;;;;;;;4991882;28;20034;-44
2022/12/23 10:42:50;;;;;;;11.30;7.60;;;;;;;;;;4988639;28;20129;-43
2022/12/23 10:45:19;;;;;;;14.98;7.80;;;;;;;;;;4988880;28;20026;-44
2022/12/23 10:47:53;;;;;;;12.10;7.70;;;;;;;;;;4990608;28;20042;-43
2022/12/23 10:50:30;;;;;;;13.32;8.40;;;;;;;;;;4990256;28;20103;-43
2022/12/23 10:52:59;;;;;;;13.80;7.43;;;;;;;;;;4993498;28;20181;-43
2022/12/23 10:55:28;;;;;;;12.57;8.35;;;;;;;;;;4986797;28;20408;-44
2022/12/23 10:57:58;;;;;;;14.73;7.80;;;;;;;;;;4989233;28;20104;-43
2022/12/23 11:00:24;;;;;;;16.63;7.45;;;;;;;;;;4990168;28;20129;-44
2022/12/23 11:03:19;;;;;;;11.10;6.28;;;;;;;;;;4990198;28;20125;-43
2022/12/23 11:05:47;;;;;;;13.65;6.88;;;;;;;;;;4976097;28;20117;-43
2022/12/23 11:08:13;;;;;;;10.57;7.00;;;;;;;;;;4981187;28;20046;-45
2022/12/23 11:10:39;;;;;;;11.23;7.25;;;;;;;;;;4973812;28;20646;-46
2022/12/23 11:13:04;;;;;;;6.65;6.03;;;;;;;;;;4977081;28;20057;-44
2022/12/23 11:15:38;;;;;;;7.65;5.60;;;;;;;;;;4973457;28;20030;-45
2022/12/23 11:18:12;;;;;;;12.90;6.10;;;;;;;;;;4978200;28;20039;-44
2022/12/23 11:20:40;;;;;;;11.40;6.32;;;;;;;;;;4973178;28;20069;-43
2022/12/23 11:23:23;;;;;;;14.00;6.40;;;;;;;;;;4969983;28;20077;-43
2022/12/23 11:26:03;;;;;;;12.98;5.80;;;;;;;;;;4974030;28;20034;-45
2022/12/23 11:28:29;;;;;;;16.92;5.85;;;;;;;;;;4974704;28;20050;-43
2022/12/23 11:31:07;;;;;;;13.18;6.70;;;;;;;;;;4978407;28;20417;-46
2022/12/23 11:33:39;;;;;;;10.88;5.68;;;;;;;;;;4971905;28;20368;-43
2022/12/23 11:36:11;;;;;;;10.02;5.15;;;;;;;;;;4975278;28;20043;-45
2022/12/23 11:38:48;;;;;;;9.23;5.70;;;;;;;;;;4975103;28;20039;-43
2022/12/23 11:41:20;;;;;;;5.80;4.43;;;;;;;;;;4975202;28;20034;-43
2022/12/23 11:43:54;;;;;;;9.35;5.50;;;;;;;;;;4989421;28;20093;-43
2022/12/23 11:46:28;;;;;;;10.98;6.32;;;;;;;;;;4988063;28;20061;-43
2022/12/23 11:49:16;;;;;;;19.30;10.30;;;;;;;;;;4987625;28;20046;-43
2022/12/23 11:51:43;;;;;;;24.52;13.93;;;;;;;;;;4987318;28;20058;-44
2022/12/23 11:54:19;;;;;;;26.95;14.38;;;;;;;;;;4990751;28;20037;-43
2022/12/23 11:56:49;;;;;;;21.38;11.30;;;;;;;;;;4988104;28;20061;-44
2022/12/23 11:59:30;;;;;;;17.02;9.27;;;;;;;;;;4988080;28;20124;-44
2022/12/23 12:01:58;;;;;;;17.23;8.40;;;;;;;;;;4993379;28;20510;-44
2022/12/23 12:04:25;;;;;;;17.60;8.63;;;;;;;;;;4991000;28;20026;-43
2022/12/23 12:06:51;;;;;;;17.92;8.70;;;;;;;;;;4988425;28;20034;-43
2022/12/23 12:09:17;;;;;;;14.90;7.72;;;;;;;;;;4989631;28;20457;-43
2022/12/23 12:11:50;;;;;;;12.93;6.55;;;;;;;;;;4986858;28;20034;-44
2022/12/23 12:14:30;;;;;;;10.55;6.90;;;;;;;;;;4986837;28;20034;-44
2022/12/23 12:17:11;;;;;;;12.40;6.60;;;;;;;;;;4987180;28;20047;-43
2022/12/23 12:19:45;;;;;;;19.47;6.13;;;;;;;;;;4989831;28;20042;-43
2022/12/23 12:22:29;;;;;;;13.80;7.13;;;;;;;;;;4985708;28;20415;-45
2022/12/23 12:24:57;;;;;;;12.80;6.30;;;;;;;;;;4986647;28;20136;-43
2022/12/23 12:27:33;;;;;;;9.57;5.40;;;;;;;;;;4985146;28;20549;-43
2022/12/23 12:30:18;;;;;;;7.50;4.60;;;;;;;;;;4986903;28;20041;-43
2022/12/23 12:32:57;;;;;;;10.88;5.43;;;;;;;;;;4984925;28;20074;-44
2022/12/23 12:36:13;;;;;;;10.45;5.50;;;;;;;;;;4987071;28;20039;-44
2022/12/23 12:38:38;;;;;;;8.57;5.20;;;;;;;;;;4972022;28;20069;-43
2022/12/23 12:41:13;;;;;;;11.60;5.32;;;;;;;;;;4978867;28;20071;-44
2022/12/23 12:43:45;;;;;;;8.35;5.60;;;;;;;;;;4976198;28;20067;-43
2022/12/23 12:46:32;;;;;;;8.18;5.18;;;;;;;;;;4968106;28;20042;-43
2022/12/23 12:49:16;;;;;;;14.18;5.82;;;;;;;;;;4972323;28;20061;-45
2022/12/23 12:51:57;;;;;;;11.07;5.28;;;;;;;;;;4973123;28;20030;-43
2022/12/23 12:55:03;;;;;;;14.02;4.88;;;;;;;;;;4975053;28;20038;-43
2022/12/23 12:57:33;;;;;;;10.45;4.95;;;;;;;;;;4892892;29;20056;-43
2022/12/23 12:59:59;;;;;;;11.73;5.03;;;;;;;;;;4893939;29;20570;-44
2022/12/23 13:02:27;;;;;;;11.88;5.85;;;;;;;;;;4892997;29;20048;-47
2022/12/23 13:05:20;;;;;;;11.45;5.53;;;;;;;;;;4895251;29;20193;-45
2022/12/23 13:08:04;;;;;;;12.63;5.57;;;;;;;;;;4894633;29;20052;-44
2022/12/23 13:10:50;;;;;;;11.30;5.38;;;;;;;;;;4929430;29;20031;-43
2022/12/23 13:13:30;;;;;;;12.70;6.97;;;;;;;;;;4940454;28;20130;-43
2022/12/23 13:16:21;;;;;;;13.80;7.75;;;;;;;;;;4941620;28;20437;-43
2022/12/23 13:19:01;;;;;;;15.05;7.57;;;;;;;;;;4946320;28;20575;-44
2022/12/23 13:21:26;;;;;;;26.10;14.23;;;;;;;;;;4945245;28;20094;-38
2022/12/23 13:24:13;;;;;;;21.77;11.35;;;;;;;;;;4948103;28;20035;-45
2022/12/23 13:26:46;;;;;;;10.40;4.70;;;;;;;;;;4946140;28;20035;-44
2022/12/23 13:29:27;;;;;;;11.48;4.85;;;;;;;;;;4984101;28;20042;-44
2022/12/23 13:32:10;;;;;;;6.27;3.57;;;;;;;;;;4985335;28;20403;-43
2022/12/23 13:34:54;;;;;;;7.55;3.60;;;;;;;;;;4987699;28;20911;-43
2022/12/23 13:37:54;;;;;;;8.63;3.53;;;;;;;;;;4985247;28;20450;-44
2022/12/23 13:40:34;;;;;;;10.73;4.00;;;;;;;;;;4984091;28;20074;-43
2022/12/23 13:43:08;;;;;;;11.57;3.38;;;;;;;;;;4986326;28;20042;-44
2022/12/23 13:45:37;;;;;;;12.25;4.25;;;;;;;;;;4987501;28;20030;-49
2022/12/23 13:48:28;;;;;;;11.25;5.13;;;;;;;;;;4987178;28;20097;-48
2022/12/23 13:51:14;;;;;;;15.50;5.57;;;;;;;;;;4986835;28;20403;-44
2022/12/23 13:53:51;;;;;;;19.08;5.57;;;;;;;;;;4984879;28;20057;-45
2022/12/23 13:56:28;;;;;;;21.58;6.00;;;;;;;;;;4988120;28;20038;-43
2022/12/23 13:58:53;;;;;;;18.63;5.85;;;;;;;;;;4986067;28;20042;-44
2022/12/23 14:01:32;;;;;;;14.50;6.22;;;;;;;;;;4985999;28;20034;-43
2022/12/23 14:04:28;;;;;;;14.90;5.90;;;;;;;;;;4983459;28;20050;-43
2022/12/23 14:06:57;;;;;;;5.97;3.75;;;;;;;;;;4983173;28;20053;-44
2022/12/23 14:09:32;;;;;;;5.32;3.17;;;;;;;;;;4986462;28;20046;-44
2022/12/23 14:12:10;;;;;;;10.20;3.85;;;;;;;;;;4985026;28;20046;-43
2022/12/23 14:14:45;;;;;;;7.43;4.10;;;;;;;;;;4995525;28;20620;-43
2022/12/23 14:17:41;;;;;;;6.40;3.30;;;;;;;;;;4987203;28;20038;-44
2022/12/23 14:20:17;;;;;;;7.68;4.50;;;;;;;;;;4990085;28;20555;-43
2022/12/23 14:23:04;;;;;;;11.75;4.75;;;;;;;;;;4989252;28;20049;-44
2022/12/23 14:25:49;;;;;;;12.45;6.28;;;;;;;;;;4991048;28;20034;-43
2022/12/23 14:28:25;;;;;;;14.65;6.43;;;;;;;;;;4988866;28;20519;-43
2022/12/23 14:30:51;;;;;;;11.25;5.50;;;;;;;;;;4990591;28;20034;-44
2022/12/23 14:33:32;;;;;;;15.13;6.50;;;;;;;;;;4986540;28;20041;-45
2022/12/23 14:36:19;;;;;;;11.25;5.50;;;;;;;;;;4992097;28;20034;-43
2022/12/23 14:39:10;;;;;;;9.00;4.68;;;;;;;;;;4991805;28;20121;-44
2022/12/23 14:41:38;;;;;;;5.80;3.58;;;;;;;;;;4989853;28;20035;-44
2022/12/23 14:44:35;;;;;;;9.27;3.72;;;;;;;;;;4989001;28;20029;-48
2022/12/23 14:47:01;;;;;;;16.52;5.85;;;;;;;;;;4985694;28;20062;-44
2022/12/23 14:49:43;;;;;;;17.58;7.65;;;;;;;;;;4986038;28;20031;-43
2022/12/23 14:52:46;;;;;;;15.52;5.78;;;;;;;;;;4988031;28;20395;-44
2022/12/23 14:55:28;;;;;;;10.25;5.10;;;;;;;;;;4988718;28;20657;-43
2022/12/23 14:58:16;;;;;;;17.55;7.47;;;;;;;;;;4988163;28;20166;-44
2022/12/23 15:01:09;;;;;;;14.88;6.75;;;;;;;;;;4982385;28;20111;-46
2022/12/23 15:03:43;;;;;;;16.50;8.73;;;;;;;;;;4966439;28;20507;-43
2022/12/23 15:06:15;;;;;;;12.95;8.60;;;;;;;;;;4975470;28;20074;-43
2022/12/23 15:08:42;;;;;;;14.65;6.70;;;;;;;;;;4965642;28;20604;-43
2022/12/23 15:11:17;;;;;;;13.75;6.97;;;;;;;;;;4965157;28;20050;-43
2022/12/23 15:13:43;;;;;;;15.95;6.68;;;;;;;;;;4965001;28;20606;-43
2022/12/23 15:16:15;;;;;;;22.83;8.13;;;;;;;;;;4960013;28;20026;-47
2022/12/23 15:18:59;;;;;;;12.85;5.88;;;;;;;;;;4960110;28;20682;-44
2022/12/23 15:21:30;;;;;;;12.30;5.90;;;;;;;;;;4961062;28;20490;-43
2022/12/23 15:23:56;;;;;;;17.67;6.28;;;;;;;;;;4971021;28;20045;-43
2022/12/23 15:26:26;;;;;;;12.55;6.82;;;;;;;;;;4974421;28;20027;-43
2022/12/23 15:28:51;;;;;;;14.90;5.53;;;;;;;;;;4975945;28;20062;-44
2022/12/23 15:31:39;;;;;;;15.23;5.40;;;;;;;;;;4973534;28;20085;-43
2022/12/23 15:34:09;;;;;;;12.02;5.63;;;;;;;;;;4971834;28;20050;-46